Time;durP1;ratioP1;P1;durP2;ratioP2;P2;SDS_P1;SDS_P2;PMS_P1;PMS_P2;Temp;Humidity;BMP_temperature;BMP_pressure;BME280_temperature;BME280_humidity;BME280_pressure;Samples;Min_cycle;Max_cycle;Signal;HPM_P1;HPM_P2
2023/06/27 00:00:12;;;;;;;;;;;14.10;94.90;;;;;;5080218;28;19919;-63
2023/06/27 00:02:40;;;;;;;;;;;14.10;95.10;;;;;;5076062;28;19924;-62
2023/06/27 00:05:07;;;;;;;;;;;14.20;94.70;;;;;;5090179;28;19912;-62
2023/06/27 00:07:34;;;;;;;;;;;14.30;94.80;;;;;;5075922;28;20281;-62
2023/06/27 00:10:01;;;;;;;;;;;14.30;94.40;;;;;;5081097;28;19912;-63
2023/06/27 00:12:30;;;;;;;;;;;14.30;94.50;;;;;;5092152;28;19920;-62
2023/06/27 00:14:57;;;;;;;;;;;14.40;94.70;;;;;;5088140;28;19999;-63
2023/06/27 00:17:24;;;;;;;;;;;14.40;94.40;;;;;;5095004;28;19908;-62
2023/06/27 00:19:57;;;;;;;;;;;14.50;94.40;;;;;;5089182;28;19924;-61
2023/06/27 00:22:26;;;;;;;;;;;14.50;94.30;;;;;;5076658;28;20348;-61
2023/06/27 00:24:53;;;;;;;;;;;14.40;94.40;;;;;;5084589;28;19922;-62
2023/06/27 00:27:20;;;;;;;;;;;14.60;94.10;;;;;;5083413;28;19912;-61
2023/06/27 00:29:47;;;;;;;;;;;14.60;94.00;;;;;;5079601;28;19937;-63
2023/06/27 00:32:14;;;;;;;;;;;14.70;93.80;;;;;;5084697;28;19931;-62
2023/06/27 00:34:41;;;;;;;;;;;14.80;93.70;;;;;;5113667;28;19991;-62
2023/06/27 00:37:07;;;;;;;;;;;14.90;93.70;;;;;;5093992;28;20376;-62
2023/06/27 00:39:34;;;;;;;;;;;14.90;93.40;;;;;;5093955;28;19958;-62
2023/06/27 00:42:01;;;;;;;;;;;15.00;93.50;;;;;;5076492;28;20030;-62
2023/06/27 00:44:27;;;;;;;;;;;15.10;93.40;;;;;;5073854;28;19968;-62
2023/06/27 00:46:54;;;;;;;;;;;15.20;93.00;;;;;;5091139;28;19935;-63
2023/06/27 00:49:21;;;;;;;;;;;15.20;93.00;;;;;;5093760;28;19995;-62
2023/06/27 00:51:48;;;;;;;;;;;15.30;92.80;;;;;;5092974;28;19908;-64
2023/06/27 00:54:15;;;;;;;;;;;15.40;92.90;;;;;;5089473;28;19921;-63
2023/06/27 00:56:42;;;;;;;;;;;15.50;92.80;;;;;;5076185;28;19916;-63
2023/06/27 00:59:09;;;;;;;;;;;15.50;92.50;;;;;;5078088;28;20292;-64
2023/06/27 01:01:36;;;;;;;;;;;15.70;92.50;;;;;;5080366;28;19916;-64
2023/06/27 01:04:02;;;;;;;;;;;15.80;92.70;;;;;;5073674;28;20335;-64
2023/06/27 01:06:29;;;;;;;;;;;15.80;92.50;;;;;;5091544;28;20007;-64
2023/06/27 01:09:04;;;;;;;;;;;16.00;92.20;;;;;;5085880;28;19916;-64
2023/06/27 01:11:36;;;;;;;;;;;16.00;91.80;;;;;;5088703;28;20007;-62
2023/06/27 01:14:03;;;;;;;;;;;16.10;91.40;;;;;;5087771;28;19920;-65
2023/06/27 01:16:31;;;;;;;;;;;16.30;91.60;;;;;;5088091;28;20387;-62
2023/06/27 01:18:58;;;;;;;;;;;16.50;91.40;;;;;;5081719;28;20002;-62
2023/06/27 01:21:28;;;;;;;;;;;16.50;91.20;;;;;;5089508;28;20327;-62
2023/06/27 01:23:55;;;;;;;;;;;16.50;91.20;;;;;;5091937;28;19919;-63
2023/06/27 01:26:22;;;;;;;;;;;16.70;91.10;;;;;;5087028;28;19942;-62
2023/06/27 01:28:49;;;;;;;;;;;16.70;91.20;;;;;;5075044;28;20385;-63
2023/06/27 01:31:33;;;;;;;;;;;16.80;90.90;;;;;;5096543;28;19911;-62
2023/06/27 01:34:05;;;;;;;;;;;16.70;90.20;;;;;;5113864;28;19960;-62
2023/06/27 01:36:35;;;;;;;;;;;16.80;90.50;;;;;;5096971;28;19919;-63
2023/06/27 01:39:10;;;;;;;;;;;16.90;90.20;;;;;;5093292;28;19916;-62
2023/06/27 01:41:38;;;;;;;;;;;16.90;88.80;;;;;;5079261;28;19915;-63
2023/06/27 01:44:06;;;;;;;;;;;17.00;89.30;;;;;;5092523;28;20368;-63
2023/06/27 01:46:33;;;;;;;;;;;17.10;89.30;;;;;;5092289;28;20307;-63
2023/06/27 01:49:00;;;;;;;;;;;17.20;88.90;;;;;;5091758;28;19994;-63
2023/06/27 01:51:27;;;;;;;;;;;17.30;88.20;;;;;;5091670;28;19908;-63
2023/06/27 01:53:53;;;;;;;;;;;17.30;88.00;;;;;;5092953;28;20053;-63
2023/06/27 01:56:20;;;;;;;;;;;17.30;88.50;;;;;;5092004;28;19915;-64
2023/06/27 01:58:47;;;;;;;;;;;17.40;89.60;;;;;;5091809;28;19909;-63
2023/06/27 02:01:14;;;;;;;;;;;17.50;87.70;;;;;;5091718;28;20003;-63
2023/06/27 02:03:41;;;;;;;;;;;17.60;88.60;;;;;;5090681;28;20353;-64
2023/06/27 02:06:07;;;;;;;;;;;17.60;87.90;;;;;;5090447;28;19916;-64
2023/06/27 02:08:34;;;;;;;;;;;17.60;87.00;;;;;;5091091;28;20062;-62
2023/06/27 02:11:00;;;;;;;;;;;17.50;87.10;;;;;;5076440;28;19952;-62
2023/06/27 02:13:27;;;;;;;;;;;17.50;87.70;;;;;;5088957;28;19928;-62
2023/06/27 02:15:54;;;;;;;;;;;17.50;88.10;;;;;;5099007;28;19912;-63
2023/06/27 02:18:20;;;;;;;;;;;17.50;87.80;;;;;;5085536;28;20343;-62
2023/06/27 02:20:47;;;;;;;;;;;17.60;87.80;;;;;;5089733;28;20337;-62
2023/06/27 02:23:14;;;;;;;;;;;17.70;86.70;;;;;;5081158;28;19973;-62
2023/06/27 02:25:43;;;;;;;;;;;17.70;87.40;;;;;;5074790;28;20277;-62
2023/06/27 02:28:09;;;;;;;;;;;17.90;87.10;;;;;;5087934;28;19912;-63
2023/06/27 02:30:36;;;;;;;;;;;18.20;86.50;;;;;;5077947;28;20012;-62
2023/06/27 02:33:03;;;;;;;;;;;18.30;85.10;;;;;;5077152;28;20376;-63
2023/06/27 02:35:29;;;;;;;;;;;18.50;83.90;;;;;;5075579;28;19912;-62
2023/06/27 02:37:56;;;;;;;;;;;18.60;84.50;;;;;;5091534;28;20364;-64
2023/06/27 02:40:22;;;;;;;;;;;18.60;83.50;;;;;;5091974;28;19908;-65
2023/06/27 02:42:50;;;;;;;;;;;18.50;83.90;;;;;;5091832;28;19916;-62
2023/06/27 02:45:17;;;;;;;;;;;18.50;84.00;;;;;;5092353;28;19912;-64
2023/06/27 02:47:43;;;;;;;;;;;18.50;83.00;;;;;;5091974;28;19916;-64
2023/06/27 02:50:10;;;;;;;;;;;18.50;82.10;;;;;;5092081;28;19912;-63
2023/06/27 02:52:37;;;;;;;;;;;18.50;83.00;;;;;;5091462;28;19912;-61
2023/06/27 02:55:03;;;;;;;;;;;18.70;82.40;;;;;;5091794;28;20272;-63
2023/06/27 02:57:30;;;;;;;;;;;18.80;81.20;;;;;;5091602;28;19909;-61
2023/06/27 02:59:57;;;;;;;;;;;18.90;81.10;;;;;;5091801;28;20009;-63
2023/06/27 03:02:23;;;;;;;;;;;18.90;80.20;;;;;;5071510;28;20280;-62
2023/06/27 03:04:50;;;;;;;;;;;19.00;81.20;;;;;;5071941;28;19908;-63
2023/06/27 03:07:17;;;;;;;;;;;19.10;79.80;;;;;;5072019;28;19916;-63
2023/06/27 03:09:43;;;;;;;;;;;19.40;79.40;;;;;;5071714;28;19916;-63
2023/06/27 03:12:10;;;;;;;;;;;19.60;78.90;;;;;;5089961;28;20002;-62
2023/06/27 03:14:37;;;;;;;;;;;19.70;78.60;;;;;;5091859;28;20290;-61
2023/06/27 03:17:03;;;;;;;;;;;19.70;77.60;;;;;;5092213;28;19908;-62
2023/06/27 03:19:30;;;;;;;;;;;19.70;78.60;;;;;;5091715;28;19908;-62
2023/06/27 03:21:57;;;;;;;;;;;19.70;77.20;;;;;;5074792;28;20344;-64
2023/06/27 03:24:23;;;;;;;;;;;19.70;77.60;;;;;;5071521;28;19909;-61
2023/06/27 03:26:50;;;;;;;;;;;20.10;77.40;;;;;;5082096;28;19915;-63
2023/06/27 03:29:17;;;;;;;;;;;20.70;76.90;;;;;;5091238;28;19908;-64
2023/06/27 03:31:43;;;;;;;;;;;21.40;74.50;;;;;;5091329;28;19966;-63
2023/06/27 03:34:10;;;;;;;;;;;21.70;74.00;;;;;;5091777;28;19962;-63
2023/06/27 03:36:37;;;;;;;;;;;21.80;73.30;;;;;;5090905;28;19912;-64
2023/06/27 03:39:04;;;;;;;;;;;22.20;71.60;;;;;;5091062;28;20363;-64
2023/06/27 03:41:31;;;;;;;;;;;22.40;71.80;;;;;;5078296;28;19916;-64
2023/06/27 03:43:57;;;;;;;;;;;23.10;69.10;;;;;;5071244;28;19921;-64
2023/06/27 03:46:24;;;;;;;;;;;23.50;68.10;;;;;;5071328;28;19909;-62
2023/06/27 03:48:55;;;;;;;;;;;24.00;67.40;;;;;;5073218;28;19947;-64
2023/06/27 03:51:21;;;;;;;;;;;24.30;66.90;;;;;;5090013;28;19908;-63
2023/06/27 03:53:48;;;;;;;;;;;24.10;66.50;;;;;;5095359;28;19920;-64
2023/06/27 03:56:15;;;;;;;;;;;23.60;67.30;;;;;;5095382;28;19954;-63
2023/06/27 03:58:41;;;;;;;;;;;23.00;68.20;;;;;;5094595;28;19908;-63
2023/06/27 04:01:08;;;;;;;;;;;23.10;69.00;;;;;;5084671;28;19909;-63
2023/06/27 04:03:35;;;;;;;;;;;23.50;68.10;;;;;;5074847;28;19908;-63
2023/06/27 04:06:02;;;;;;;;;;;24.60;66.90;;;;;;5085837;28;20289;-63
2023/06/27 04:08:28;;;;;;;;;;;25.10;65.40;;;;;;5094699;28;19908;-64
2023/06/27 04:10:55;;;;;;;;;;;25.00;64.70;;;;;;5093341;28;19966;-64
2023/06/27 04:13:22;;;;;;;;;;;24.40;65.70;;;;;;5094714;28;19927;-63
2023/06/27 04:15:48;;;;;;;;;;;23.60;66.80;;;;;;5086588;28;19920;-64
2023/06/27 04:18:15;;;;;;;;;;;22.90;68.80;;;;;;5092823;28;20258;-64
2023/06/27 04:20:42;;;;;;;;;;;22.10;69.80;;;;;;5094048;28;19908;-64
2023/06/27 04:23:08;;;;;;;;;;;21.40;71.20;;;;;;5093896;28;20379;-64
2023/06/27 04:25:36;;;;;;;;;;;21.10;72.50;;;;;;5094815;28;19916;-64
2023/06/27 04:28:03;;;;;;;;;;;21.00;73.80;;;;;;5090959;28;19912;-64
2023/06/27 04:30:30;;;;;;;;;;;20.90;73.50;;;;;;5098113;28;19923;-65
2023/06/27 04:32:56;;;;;;;;;;;20.80;73.40;;;;;;5092869;28;19920;-64
2023/06/27 04:35:23;;;;;;;;;;;20.60;73.70;;;;;;5093843;28;19908;-65
2023/06/27 04:37:51;;;;;;;;;;;20.50;73.60;;;;;;5093864;28;19915;-64
2023/06/27 04:40:18;;;;;;;;;;;20.30;75.40;;;;;;5094237;28;19985;-65
2023/06/27 04:42:45;;;;;;;;;;;20.20;74.40;;;;;;5093049;28;19959;-66
2023/06/27 04:45:12;;;;;;;;;;;20.10;74.70;;;;;;5089845;28;19920;-63
2023/06/27 04:47:39;;;;;;;;;;;19.90;75.00;;;;;;5092888;28;19931;-64
2023/06/27 04:50:05;;;;;;;;;;;19.80;75.70;;;;;;5093541;28;20711;-64
2023/06/27 04:52:33;;;;;;;;;;;19.90;75.80;;;;;;5092226;28;19914;-64
2023/06/27 04:54:59;;;;;;;;;;;19.80;76.20;;;;;;5093132;28;19916;-63
2023/06/27 04:57:26;;;;;;;;;;;19.60;76.40;;;;;;5091217;28;19916;-64
2023/06/27 04:59:53;;;;;;;;;;;19.60;76.70;;;;;;5104092;28;20272;-63
2023/06/27 05:02:19;;;;;;;;;;;19.60;77.40;;;;;;5091388;28;20321;-64
2023/06/27 05:04:46;;;;;;;;;;;19.70;76.60;;;;;;5089671;28;19912;-64
2023/06/27 05:07:13;;;;;;;;;;;19.70;76.40;;;;;;5083883;28;19909;-64
2023/06/27 05:09:39;;;;;;;;;;;19.70;76.50;;;;;;5083147;28;19912;-63
2023/06/27 05:12:06;;;;;;;;;;;19.60;76.60;;;;;;5091920;28;20480;-62
2023/06/27 05:14:33;;;;;;;;;;;19.50;76.10;;;;;;5090676;28;20022;-64
2023/06/27 05:16:59;;;;;;;;;;;19.30;76.70;;;;;;5088308;28;20050;-64
2023/06/27 05:19:26;;;;;;;;;;;19.30;76.70;;;;;;5092742;28;19916;-63
2023/06/27 05:21:53;;;;;;;;;;;19.40;77.10;;;;;;5088910;28;19918;-63
2023/06/27 05:24:19;;;;;;;;;;;19.40;77.20;;;;;;5079198;28;19913;-63
2023/06/27 05:26:46;;;;;;;;;;;19.30;76.50;;;;;;5086833;28;19920;-64
2023/06/27 05:29:13;;;;;;;;;;;19.30;76.90;;;;;;5078142;28;19912;-64
2023/06/27 05:31:40;;;;;;;;;;;19.50;76.30;;;;;;5090310;28;19916;-64
2023/06/27 05:34:08;;;;;;;;;;;19.80;76.70;;;;;;5088622;28;19931;-64
2023/06/27 05:36:34;;;;;;;;;;;20.00;75.70;;;;;;5090247;28;19916;-64
2023/06/27 05:39:01;;;;;;;;;;;19.80;75.50;;;;;;5092503;28;19923;-63
2023/06/27 05:41:30;;;;;;;;;;;19.70;76.20;;;;;;5083603;28;19916;-64
2023/06/27 05:43:56;;;;;;;;;;;19.50;75.90;;;;;;5090731;28;19935;-63
2023/06/27 05:46:23;;;;;;;;;;;19.50;76.90;;;;;;5089961;28;20072;-63
2023/06/27 05:48:50;;;;;;;;;;;19.60;76.90;;;;;;5073129;28;19912;-64
2023/06/27 05:51:16;;;;;;;;;;;19.70;76.40;;;;;;5091148;28;19912;-64
2023/06/27 05:53:43;;;;;;;;;;;19.80;76.10;;;;;;5088780;28;19924;-63
2023/06/27 05:56:10;;;;;;;;;;;19.80;76.00;;;;;;5071690;28;19916;-63
2023/06/27 05:58:37;;;;;;;;;;;19.50;75.90;;;;;;5089289;28;19996;-64
2023/06/27 06:01:03;;;;;;;;;;;19.30;77.40;;;;;;5092881;28;20280;-63
2023/06/27 06:03:33;;;;;;;;;;;19.00;77.80;;;;;;5086237;28;19909;-64
2023/06/27 06:05:59;;;;;;;;;;;19.00;77.80;;;;;;5090482;28;20270;-64
2023/06/27 06:08:26;;;;;;;;;;;18.90;77.40;;;;;;5084822;28;19962;-63
2023/06/27 06:10:53;;;;;;;;;;;18.80;77.70;;;;;;5082932;28;20630;-64
2023/06/27 06:13:19;;;;;;;;;;;18.60;78.20;;;;;;5070448;28;19916;-61
2023/06/27 06:15:46;;;;;;;;;;;18.30;79.10;;;;;;5087291;28;19916;-62
2023/06/27 06:18:13;;;;;;;;;;;18.10;79.10;;;;;;5085594;28;19919;-63
2023/06/27 06:20:39;;;;;;;;;;;17.90;80.60;;;;;;5088768;28;19999;-64
2023/06/27 06:23:06;;;;;;;;;;;17.70;80.60;;;;;;5089938;28;20348;-61
2023/06/27 06:25:33;;;;;;;;;;;17.50;81.90;;;;;;5083265;28;19912;-63
2023/06/27 06:27:59;;;;;;;;;;;17.40;82.00;;;;;;5074634;28;19956;-61
2023/06/27 06:30:26;;;;;;;;;;;17.20;82.30;;;;;;5078448;28;20369;-60
2023/06/27 06:32:53;;;;;;;;;;;17.10;83.40;;;;;;5069009;28;19970;-63
2023/06/27 06:35:19;;;;;;;;;;;17.00;83.40;;;;;;5083397;28;19923;-63
2023/06/27 06:37:46;;;;;;;;;;;16.80;83.80;;;;;;5089599;28;19916;-61
2023/06/27 06:40:13;;;;;;;;;;;16.70;84.20;;;;;;5091690;28;19991;-64
2023/06/27 06:42:39;;;;;;;;;;;16.50;84.50;;;;;;5091338;28;19908;-62
2023/06/27 06:45:08;;;;;;;;;;;16.40;84.80;;;;;;5082848;28;19931;-61
2023/06/27 06:47:35;;;;;;;;;;;16.30;85.00;;;;;;5071463;28;19913;-61
2023/06/27 06:50:02;;;;;;;;;;;16.30;85.40;;;;;;5079101;28;20007;-63
2023/06/27 06:52:29;;;;;;;;;;;16.20;85.60;;;;;;5085436;28;20365;-63
2023/06/27 06:54:56;;;;;;;;;;;16.20;86.40;;;;;;5083692;28;20300;-61
2023/06/27 06:57:22;;;;;;;;;;;16.10;86.10;;;;;;5091218;28;19999;-61
2023/06/27 06:59:49;;;;;;;;;;;16.00;86.50;;;;;;5091309;28;19912;-62
2023/06/27 07:02:16;;;;;;;;;;;15.90;86.80;;;;;;5081681;28;19919;-64
2023/06/27 07:04:43;;;;;;;;;;;15.80;87.30;;;;;;5075494;28;19912;-64
2023/06/27 07:07:09;;;;;;;;;;;15.70;87.60;;;;;;5090582;28;19931;-62
2023/06/27 07:09:36;;;;;;;;;;;15.60;88.90;;;;;;5091108;28;20299;-62
2023/06/27 07:12:03;;;;;;;;;;;15.60;89.60;;;;;;5086496;28;20392;-62
2023/06/27 07:14:29;;;;;;;;;;;15.40;90.10;;;;;;5081907;28;19917;-63
2023/06/27 07:16:56;;;;;;;;;;;15.30;90.40;;;;;;5090430;28;19919;-63
2023/06/27 07:19:23;;;;;;;;;;;15.20;90.70;;;;;;5091158;28;20002;-64
2023/06/27 07:21:49;;;;;;;;;;;15.10;91.10;;;;;;5087745;28;19915;-63
2023/06/27 07:24:16;;;;;;;;;;;15.00;91.30;;;;;;5087753;28;19916;-63
2023/06/27 07:26:43;;;;;;;;;;;14.90;91.80;;;;;;5092466;28;20003;-62
2023/06/27 07:29:10;;;;;;;;;;;14.90;92.30;;;;;;5074744;28;19915;-63
2023/06/27 07:31:37;;;;;;;;;;;14.70;92.50;;;;;;5089593;28;20435;-63
2023/06/27 07:34:04;;;;;;;;;;;14.70;93.00;;;;;;5075964;28;20306;-62
2023/06/27 07:36:30;;;;;;;;;;;14.70;93.20;;;;;;5094886;28;19912;-62
2023/06/27 07:38:58;;;;;;;;;;;14.60;93.20;;;;;;5095208;28;19915;-62
2023/06/27 07:41:25;;;;;;;;;;;14.60;93.40;;;;;;5094168;28;19999;-62
2023/06/27 07:43:52;;;;;;;;;;;14.60;93.60;;;;;;5089039;28;19928;-62
2023/06/27 07:46:18;;;;;;;;;;;14.50;93.70;;;;;;5090810;28;19951;-62
2023/06/27 07:48:45;;;;;;;;;;;14.50;93.90;;;;;;5095446;28;19908;-61
2023/06/27 07:51:12;;;;;;;;;;;14.50;94.10;;;;;;5094850;28;20365;-60
2023/06/27 07:53:38;;;;;;;;;;;14.50;94.00;;;;;;5090178;28;19931;-62
2023/06/27 07:56:05;;;;;;;;;;;14.50;94.00;;;;;;5088356;28;19912;-61
2023/06/27 07:58:32;;;;;;;;;;;14.40;94.10;;;;;;5095234;28;19977;-61
2023/06/27 08:00:58;;;;;;;;;;;14.50;94.20;;;;;;5094526;28;20277;-61
2023/06/27 08:03:25;;;;;;;;;;;14.50;94.30;;;;;;5092108;28;20464;-61
2023/06/27 08:05:53;;;;;;;;;;;14.50;94.50;;;;;;5084637;28;19912;-62
2023/06/27 08:08:20;;;;;;;;;;;14.50;94.60;;;;;;5093879;28;20283;-62
2023/06/27 08:10:47;;;;;;;;;;;14.40;94.40;;;;;;5094810;28;19916;-62
2023/06/27 08:13:13;;;;;;;;;;;14.40;94.30;;;;;;5093665;28;20033;-61
2023/06/27 08:15:40;;;;;;;;;;;14.40;94.30;;;;;;5090451;28;19916;-61
2023/06/27 08:18:07;;;;;;;;;;;14.40;94.50;;;;;;5092554;28;19912;-62
2023/06/27 08:20:33;;;;;;;;;;;14.40;94.70;;;;;;5081657;28;20587;-62
2023/06/27 08:23:00;;;;;;;;;;;14.40;94.70;;;;;;5093847;28;19912;-62
2023/06/27 08:25:26;;;;;;;;;;;14.40;94.70;;;;;;5083282;28;19920;-63
2023/06/27 08:27:53;;;;;;;;;;;14.30;95.20;;;;;;5093818;28;19998;-62
2023/06/27 08:30:20;;;;;;;;;;;14.30;95.50;;;;;;5094063;28;19918;-62
2023/06/27 08:32:46;;;;;;;;;;;14.30;96.00;;;;;;5093805;28;19923;-62
2023/06/27 08:35:13;;;;;;;;;;;14.20;96.00;;;;;;5079837;28;19920;-61
2023/06/27 08:37:40;;;;;;;;;;;14.10;96.00;;;;;;5093337;28;20276;-62
2023/06/27 08:40:09;;;;;;;;;;;14.10;96.40;;;;;;5093978;28;21375;-61
2023/06/27 08:42:35;;;;;;;;;;;14.00;96.50;;;;;;5093949;28;19908;-62
2023/06/27 08:45:02;;;;;;;;;;;14.00;96.70;;;;;;5077835;28;19959;-62
2023/06/27 08:47:30;;;;;;;;;;;13.90;96.80;;;;;;5092900;28;19915;-61
2023/06/27 08:50:05;;;;;;;;;;;13.90;97.00;;;;;;5094532;28;19909;-62
2023/06/27 08:52:38;;;;;;;;;;;13.80;97.30;;;;;;5099342;28;19938;-61
2023/06/27 08:55:07;;;;;;;;;;;13.70;97.40;;;;;;5079178;28;19920;-62
2023/06/27 08:57:35;;;;;;;;;;;13.70;97.40;;;;;;5093437;28;19908;-61
2023/06/27 09:00:09;;;;;;;;;;;13.70;97.60;;;;;;5093759;28;19912;-62
2023/06/27 09:02:38;;;;;;;;;;;13.70;97.70;;;;;;5091010;28;19968;-61
2023/06/27 09:05:06;;;;;;;;;;;13.60;97.70;;;;;;5073879;28;20384;-61
2023/06/27 09:07:33;;;;;;;;;;;13.60;97.70;;;;;;5093804;28;20276;-61
2023/06/27 09:10:00;;;;;;;;;;;13.60;97.70;;;;;;5083006;28;20308;-62
2023/06/27 09:12:27;;;;;;;;;;;13.50;97.80;;;;;;5093518;28;19919;-60
2023/06/27 09:14:53;;;;;;;;;;;13.60;98.00;;;;;;5079129;28;20383;-62
2023/06/27 09:17:20;;;;;;;;;;;13.60;98.10;;;;;;5092121;28;20500;-61
2023/06/27 09:19:47;;;;;;;;;;;13.60;98.10;;;;;;5072516;28;19921;-61
2023/06/27 09:22:15;;;;;;;;;;;13.60;98.30;;;;;;5091488;28;19912;-61
2023/06/27 09:24:42;;;;;;;;;;;13.50;98.40;;;;;;5080468;28;19916;-61
2023/06/27 09:27:31;;;;;;;;;;;13.60;98.70;;;;;;5089203;28;19955;-61
2023/06/27 09:30:02;;;;;;;;;;;13.60;99.00;;;;;;5093484;28;19977;-61
2023/06/27 09:32:29;;;;;;;;;;;13.60;99.10;;;;;;5093039;28;19912;-61
2023/06/27 09:34:56;;;;;;;;;;;13.60;99.30;;;;;;5081295;28;20466;-62
2023/06/27 09:37:31;;;;;;;;;;;13.60;99.30;;;;;;5088043;28;19974;-63
2023/06/27 09:39:58;;;;;;;;;;;13.70;99.20;;;;;;5071068;28;19912;-62
2023/06/27 09:42:25;;;;;;;;;;;13.70;99.30;;;;;;5088735;28;19916;-61
2023/06/27 09:44:52;;;;;;;;;;;13.60;99.30;;;;;;5076493;28;19927;-63
2023/06/27 09:47:18;;;;;;;;;;;13.60;99.40;;;;;;5078158;28;19919;-61
2023/06/27 09:49:45;;;;;;;;;;;13.70;99.40;;;;;;5086926;28;19916;-61
2023/06/27 09:52:12;;;;;;;;;;;13.70;99.50;;;;;;5092978;28;20384;-62
2023/06/27 09:54:43;;;;;;;;;;;13.60;99.60;;;;;;5080565;28;19962;-61
2023/06/27 09:57:16;;;;;;;;;;;13.60;99.90;;;;;;5088169;28;19911;-63
2023/06/27 09:59:42;;;;;;;;;;;13.60;99.90;;;;;;5092077;28;19919;-64
2023/06/27 10:02:13;;;;;;;;;;;13.60;99.90;;;;;;5092505;28;19928;-62
2023/06/27 10:04:40;;;;;;;;;;;13.60;99.90;;;;;;5080276;28;19909;-59
2023/06/27 10:07:13;;;;;;;;;;;13.60;99.90;;;;;;5087093;28;19965;-62
2023/06/27 10:09:40;;;;;;;;;;;13.50;99.90;;;;;;5091561;28;19912;-62
2023/06/27 10:12:07;;;;;;;;;;;13.50;99.90;;;;;;5092323;28;19974;-62
2023/06/27 10:14:33;;;;;;;;;;;13.40;99.90;;;;;;5081168;28;19916;-62
2023/06/27 10:17:01;;;;;;;;;;;13.50;99.90;;;;;;5073626;28;19913;-60
2023/06/27 10:19:31;;;;;;;;;;;13.40;99.90;;;;;;5072100;28;19909;-65
2023/06/27 10:22:00;;;;;;;;;;;13.40;99.90;;;;;;5084919;28;19912;-63
2023/06/27 10:24:28;;;;;;;;;;;13.40;99.90;;;;;;5081973;28;20349;-62
2023/06/27 10:26:58;;;;;;;;;;;13.50;99.90;;;;;;5080090;28;19919;-62
2023/06/27 10:29:30;;;;;;;;;;;13.40;99.90;;;;;;5089357;28;19916;-62
2023/06/27 10:31:57;;;;;;;;;;;13.50;99.90;;;;;;5092310;28;19916;-62
2023/06/27 10:34:29;;;;;;;;;;;13.50;99.90;;;;;;5078509;28;19920;-61
2023/06/27 10:36:55;;;;;;;;;;;13.50;99.90;;;;;;5083678;28;20369;-61
2023/06/27 10:39:29;;;;;;;;;;;13.50;99.90;;;;;;5092268;28;19909;-63
2023/06/27 10:42:15;;;;;;;;;;;13.50;99.90;;;;;;5091950;28;19962;-62
2023/06/27 10:44:54;;;;;;;;;;;13.50;99.90;;;;;;5075122;28;19920;-64
2023/06/27 10:47:21;;;;;;;;;;;13.40;99.90;;;;;;5081296;28;19919;-63
2023/06/27 10:49:48;;;;;;;;;;;13.40;99.90;;;;;;5071361;28;19917;-64
2023/06/27 10:52:24;;;;;;;;;;;13.50;99.90;;;;;;5084446;28;20049;-61
2023/06/27 10:55:09;;;;;;;;;;;13.40;99.90;;;;;;5077301;28;19987;-61
2023/06/27 10:57:39;;;;;;;;;;;13.40;99.90;;;;;;5102308;28;19965;-62
2023/06/27 11:00:32;;;;;;;;;;;13.30;99.90;;;;;;5101211;28;19931;-62
2023/06/27 11:03:01;;;;;;;;;;;13.40;99.90;;;;;;5094095;28;20266;-61
2023/06/27 11:05:40;;;;;;;;;;;13.30;99.90;;;;;;5079415;28;19927;-62
2023/06/27 11:08:11;;;;;;;;;;;13.30;99.90;;;;;;5078676;28;20073;-60
2023/06/27 11:10:37;;;;;;;;;;;13.30;99.90;;;;;;5077340;28;20361;-60
2023/06/27 11:13:21;;;;;;;;;;;13.30;99.90;;;;;;5097103;28;19923;-61
2023/06/27 11:15:49;;;;;;;;;;;13.30;99.90;;;;;;5077681;28;19919;-63
2023/06/27 11:18:16;;;;;;;;;;;13.40;99.90;;;;;;5078322;28;19919;-62
2023/06/27 11:20:43;;;;;;;;;;;13.30;99.90;;;;;;5078441;28;19909;-62
2023/06/27 11:23:11;;;;;;;;;;;13.30;99.90;;;;;;5078502;28;20365;-63
2023/06/27 11:25:40;;;;;;;;;;;13.30;99.90;;;;;;5078173;28;19912;-63
2023/06/27 11:28:07;;;;;;;;;;;13.20;99.90;;;;;;5077284;28;19912;-65
2023/06/27 11:30:33;;;;;;;;;;;13.30;99.90;;;;;;5077949;28;19909;-65
2023/06/27 11:33:01;;;;;;;;;;;13.20;99.90;;;;;;5077110;28;20015;-62
2023/06/27 11:35:28;;;;;;;;;;;13.20;99.90;;;;;;5077019;28;19919;-64
2023/06/27 11:37:55;;;;;;;;;;;13.20;99.90;;;;;;5095277;28;19912;-62
2023/06/27 11:40:22;;;;;;;;;;;13.20;99.90;;;;;;5097968;28;19953;-64
2023/06/27 11:42:49;;;;;;;;;;;13.10;99.90;;;;;;5096583;28;20398;-65
2023/06/27 11:45:16;;;;;;;;;;;13.20;99.90;;;;;;5078173;28;19923;-64
2023/06/27 11:47:44;;;;;;;;;;;13.10;99.90;;;;;;5097814;28;20268;-62
2023/06/27 11:50:12;;;;;;;;;;;13.10;99.90;;;;;;5091776;28;19912;-62
2023/06/27 11:52:41;;;;;;;;;;;13.00;99.90;;;;;;5096906;28;19940;-64
2023/06/27 11:55:08;;;;;;;;;;;13.00;99.90;;;;;;5098784;28;19908;-63
2023/06/27 11:57:44;;;;;;;;;;;13.10;99.90;;;;;;5098491;28;19912;-61
2023/06/27 12:00:15;;;;;;;;;;;13.00;99.90;;;;;;5098345;28;19979;-62
2023/06/27 12:02:41;;;;;;;;;;;13.00;99.90;;;;;;5097254;28;19912;-62
2023/06/27 12:05:15;;;;;;;;;;;13.00;99.90;;;;;;5086893;28;19919;-65
2023/06/27 12:08:02;;;;;;;;;;;13.00;99.90;;;;;;5078579;28;19912;-64
2023/06/27 12:10:29;;;;;;;;;;;13.00;99.90;;;;;;5070365;28;19913;-64
2023/06/27 12:12:56;;;;;;;;;;;13.00;99.90;;;;;;5075506;28;19963;-63
2023/06/27 12:15:23;;;;;;;;;;;13.00;99.90;;;;;;5075546;28;19952;-63
2023/06/27 12:17:59;;;;;;;;;;;13.00;99.90;;;;;;5082855;28;19922;-63
2023/06/27 12:20:26;;;;;;;;;;;13.00;99.90;;;;;;5095673;28;19915;-64
2023/06/27 12:22:53;;;;;;;;;;;13.00;99.90;;;;;;5095597;28;20275;-63
2023/06/27 12:25:19;;;;;;;;;;;12.90;99.90;;;;;;5075959;28;19932;-63
2023/06/27 12:27:46;;;;;;;;;;;13.00;99.90;;;;;;5074629;28;19912;-62
2023/06/27 12:30:13;;;;;;;;;;;13.00;99.90;;;;;;5074653;28;19914;-63
2023/06/27 12:32:40;;;;;;;;;;;13.00;99.90;;;;;;5057444;28;19985;-60
2023/06/27 12:35:07;;;;;;;;;;;13.00;99.50;;;;;;5075193;28;19958;-63
2023/06/27 12:37:34;;;;;;;;;;;13.00;98.80;;;;;;5086755;28;19974;-64
2023/06/27 12:40:01;;;;;;;;;;;13.00;99.20;;;;;;5094612;28;19915;-63
2023/06/27 12:42:28;;;;;;;;;;;13.00;99.40;;;;;;5094420;28;19913;-61
2023/06/27 12:44:55;;;;;;;;;;;13.00;99.40;;;;;;5094580;28;19931;-63
2023/06/27 12:47:22;;;;;;;;;;;12.90;99.30;;;;;;5094918;28;19908;-62
2023/06/27 12:49:49;;;;;;;;;;;13.00;99.40;;;;;;5094366;28;19909;-60
2023/06/27 12:52:16;;;;;;;;;;;13.00;99.00;;;;;;5094733;28;19915;-62
2023/06/27 12:54:42;;;;;;;;;;;13.00;98.80;;;;;;5094937;28;19916;-61
2023/06/27 12:57:09;;;;;;;;;;;13.10;98.80;;;;;;5094796;28;19909;-63
2023/06/27 12:59:35;;;;;;;;;;;13.00;98.80;;;;;;5094702;28;19966;-62
2023/06/27 13:02:02;;;;;;;;;;;13.00;98.90;;;;;;5094841;28;20323;-62
2023/06/27 13:04:32;;;;;;;;;;;13.00;98.90;;;;;;5094769;28;20371;-63
2023/06/27 13:06:59;;;;;;;;;;;13.00;98.70;;;;;;5094717;28;19908;-62
2023/06/27 13:09:25;;;;;;;;;;;13.10;98.90;;;;;;5094020;28;19912;-62
2023/06/27 13:11:53;;;;;;;;;;;13.10;98.80;;;;;;5094572;28;20410;-61
2023/06/27 13:14:20;;;;;;;;;;;13.10;98.90;;;;;;5094282;28;20691;-61
2023/06/27 13:16:47;;;;;;;;;;;13.10;98.50;;;;;;5093033;28;19957;-62
2023/06/27 13:19:14;;;;;;;;;;;13.10;98.30;;;;;;5094811;28;20322;-61
2023/06/27 13:21:41;;;;;;;;;;;13.10;97.90;;;;;;5093911;28;20094;-62
2023/06/27 13:24:07;;;;;;;;;;;13.10;97.50;;;;;;5094254;28;19978;-61
2023/06/27 13:26:34;;;;;;;;;;;13.10;97.90;;;;;;5094047;28;19908;-62
2023/06/27 13:29:01;;;;;;;;;;;13.10;97.60;;;;;;5085068;28;19921;-62
2023/06/27 13:31:27;;;;;;;;;;;13.20;96.90;;;;;;5094069;28;19908;-62
2023/06/27 13:33:54;;;;;;;;;;;13.20;96.70;;;;;;5093751;28;20361;-63
2023/06/27 13:36:21;;;;;;;;;;;13.20;96.80;;;;;;5093130;28;19912;-62
2023/06/27 13:38:47;;;;;;;;;;;13.10;96.80;;;;;;5092195;28;19947;-60
2023/06/27 13:41:14;;;;;;;;;;;13.20;96.50;;;;;;5094047;28;20367;-63
2023/06/27 13:43:41;;;;;;;;;;;13.20;96.40;;;;;;5093860;28;19927;-63
2023/06/27 13:46:07;;;;;;;;;;;13.20;96.30;;;;;;5093777;28;19909;-61
2023/06/27 13:48:34;;;;;;;;;;;13.20;96.10;;;;;;5093623;28;19913;-61
2023/06/27 13:51:01;;;;;;;;;;;13.20;96.10;;;;;;5093684;28;19931;-61
2023/06/27 13:53:27;;;;;;;;;;;13.20;96.50;;;;;;5093078;28;20018;-62
2023/06/27 13:55:54;;;;;;;;;;;13.20;96.20;;;;;;5093544;28;19912;-63
2023/06/27 13:58:25;;;;;;;;;;;13.20;96.20;;;;;;5093546;28;19908;-61
2023/06/27 14:00:53;;;;;;;;;;;13.10;96.20;;;;;;5093761;28;19908;-61
2023/06/27 14:03:20;;;;;;;;;;;13.10;96.20;;;;;;5090756;28;19912;-62
2023/06/27 14:05:47;;;;;;;;;;;13.10;96.10;;;;;;5080766;28;19923;-61
2023/06/27 14:08:14;;;;;;;;;;;13.10;96.30;;;;;;5077727;28;20007;-62
2023/06/27 14:10:40;;;;;;;;;;;13.10;96.10;;;;;;5093208;28;20319;-62
2023/06/27 14:13:07;;;;;;;;;;;13.10;95.80;;;;;;5093372;28;19912;-64
2023/06/27 14:15:34;;;;;;;;;;;13.10;95.80;;;;;;5093464;28;19912;-62
2023/06/27 14:18:01;;;;;;;;;;;13.20;95.90;;;;;;5072688;28;19909;-62